सभी
Bad Hersfeld Airport EDEN मौसम
There is no TAF data available at EDEN or any nearby airports.
There is no METAR data available at EDEN. Showing METAR data for ETHF (26 mi NW).
Recent FRZ METAR history (no data for EDEN)
| Date | Time (CEST) | Flight Rules | Wind Dir. | Speed | Type | Height AGL (ft) | Visibility | Temp (°C) | Temp (°F) | Dew Point (°C) | Dew Point (°F) | Rel. Humid. | Pressure | Density Altitude | Remarks |
|---|---|---|---|---|---|---|---|---|---|---|---|---|---|---|---|
| 02-मई | 18:20 | VFR | 180° | 9 kt | 10000 meters | 24° | 75° | 6° | 42° | 31% | 1016 mb | 1,564 ft | |||
| 02-मई | 17:20 | VFR | 180° | 10 kt | 10000 meters | 25° | 77° | 4° | 39° | 26% | 1016 mb | 1,684 ft | |||
| 02-मई | 16:20 | VFR | 200° | 8 kt | 10000 meters | 25° | 77° | 5° | 41° | 28% | 1017 mb | 1,654 ft | |||
| 02-मई | 15:20 | VFR | 190° | 9 kt | 10000 meters | 25° | 77° | 5° | 41° | 28% | 1018 mb | 1,624 ft | |||
| 02-मई | 14:20 | VFR | 190° | 8 kt | 10000 meters | 24° | 75° | 5° | 41° | 29% | 1018 mb | 1,504 ft | |||
| 02-मई | 13:20 | VFR | 170° | 9 kt | 10000 meters | 24° | 75° | 6° | 42° | 31% | 1019 mb | 1,475 ft | |||
| 02-मई | 12:20 | VFR | 170° | 7 kt | 10000 meters | 22° | 71° | 7° | 44° | 38% | 1020 mb | 1,205 ft | |||
| 02-मई | 11:20 | VFR | 200° | 9 kt | 10000 meters | 21° | 69° | 7° | 44° | 40% | 1021 mb | 1,056 ft | |||
| 02-मई | 10:20 | VFR | 150° | 5 kt | 10000 meters | 18° | 64° | 7° | 44° | 49% | 1021 mb | 696 ft | |||
| 02-मई | 09:20 | VFR | Variable | 2 kt | 10000 meters | 14° | 57° | 7° | 44° | 63% | 1022 mb | 186 ft | |||
| 02-मई | 08:20 | VFR | Calm | 10000 meters | 10° | 50° | 5° | 41° | 71% | 1022 mb | -294 ft | ||||
| 02-मई | 07:20 | VFR | Calm | 10000 meters |
6° | 42° | 3° | 37° | 81% | 1022 mb | -774 ft | ||||
| 02-मई | 06:20 | BCAT1 | Calm | 800 meters |
3° | 37° | 2° | 35° | 93% | 1022 mb | -1,134 ft | ||||
| 02-मई | 05:20 | VFR | 300° | 3 kt | 10000 meters | 4° | 39° | 3° | 37° | 93% | 1022 mb | -1,014 ft | |||
| 02-मई | 04:20 | VFR | 290° | 1 kt | 10000 meters | 4° | 39° | 3° | 37° | 93% | 1023 mb | -1,043 ft | |||
| 02-मई | 03:20 | VFR | 300° | 2 kt | 10000 meters | 6° | 42° | 4° | 39° | 87% | 1023 mb | -803 ft | |||
| 02-मई | 02:20 | VFR | 270° | 2 kt | 10000 meters | 6° | 42° | 3° | 37° | 81% | 1024 mb | -833 ft | |||
| 02-मई | 01:20 | VFR | 300° | 3 kt | 10000 meters | 7° | 44° | 4° | 39° | 81% | 1024 mb | -713 ft | |||
| 02-मई | 00:20 | VFR | 290° | 3 kt | 10000 meters | 8° | 46° | 5° | 41° | 81% | 1024 mb | -593 ft | |||
| 01-मई | 23:20 | VFR | 270° | 2 kt | 10000 meters | 8° | 46° | 5° | 41° | 81% | 1024 mb | -593 ft | |||
| 01-मई | 22:20 | VFR | 290° | 1 kt | 10000 meters | 11° | 51° | 6° | 42° | 71% | 1024 mb | -233 ft | |||
| 01-मई | 21:20 | VFR | Variable | 1 kt | 10000 meters | 15° | 59° | 5° | 41° | 51% | 1024 mb | 247 ft | |||
| 01-मई | 20:20 | VFR | 140° | 6 kt | 10000 meters | 17° | 62° | 5° | 41° | 45% | 1023 mb | 517 ft | |||
| 01-मई | 19:20 | VFR | 150° | 7 kt | 10000 meters | 21° | 69° | 4° | 39° | 33% | 1023 mb | 997 ft |
लॉगिन
| Your browser is unsupported. अपना ब्राऊजर अपग्रेड करें |
